sensor_id;sensor_type;location;lat;lon;timestamp;P1;durP1;ratioP1;P2;durP2;ratioP2
26325;SDS011;14032;52.510;7.342;2022-09-20T00:00:04;7.95;;;1.63;;
26325;SDS011;14032;52.510;7.342;2022-09-20T00:02:30;8.80;;;1.52;;
26325;SDS011;14032;52.510;7.342;2022-09-20T00:04:56;9.88;;;1.48;;
26325;SDS011;14032;52.510;7.342;2022-09-20T00:07:22;12.60;;;1.70;;
26325;SDS011;14032;52.510;7.342;2022-09-20T00:09:47;17.83;;;2.60;;
26325;SDS011;14032;52.510;7.342;2022-09-20T00:12:13;9.23;;;1.30;;
26325;SDS011;14032;52.510;7.342;2022-09-20T00:14:38;21.20;;;2.10;;
26325;SDS011;14032;52.510;7.342;2022-09-20T00:17:04;9.68;;;1.58;;
26325;SDS011;14032;52.510;7.342;2022-09-20T00:19:29;11.73;;;2.38;;
26325;SDS011;14032;52.510;7.342;2022-09-20T00:21:55;12.40;;;1.98;;
26325;SDS011;14032;52.510;7.342;2022-09-20T00:24:20;6.80;;;1.48;;
26325;SDS011;14032;52.510;7.342;2022-09-20T00:26:46;9.88;;;1.30;;
26325;SDS011;14032;52.510;7.342;2022-09-20T00:29:12;11.18;;;1.48;;
26325;SDS011;14032;52.510;7.342;2022-09-20T00:31:37;12.45;;;1.60;;
26325;SDS011;14032;52.510;7.342;2022-09-20T00:34:07;12.40;;;1.73;;
26325;SDS011;14032;52.510;7.342;2022-09-20T00:39:18;11.30;;;1.88;;
26325;SDS011;14032;52.510;7.342;2022-09-20T00:41:44;15.45;;;2.35;;
26325;SDS011;14032;52.510;7.342;2022-09-20T00:52:36;13.80;;;2.45;;
26325;SDS011;14032;52.510;7.342;2022-09-20T00:55:02;12.38;;;1.92;;
26325;SDS011;14032;52.510;7.342;2022-09-20T00:57:31;9.48;;;1.70;;
26325;SDS011;14032;52.510;7.342;2022-09-20T00:59:59;12.70;;;2.33;;
26325;SDS011;14032;52.510;7.342;2022-09-20T01:02:30;12.23;;;1.98;;
26325;SDS011;14032;52.510;7.342;2022-09-20T01:05:00;11.20;;;1.95;;
26325;SDS011;14032;52.510;7.342;2022-09-20T01:07:25;12.02;;;2.65;;
26325;SDS011;14032;52.510;7.342;2022-09-20T01:09:52;13.82;;;2.03;;
26325;SDS011;14032;52.510;7.342;2022-09-20T01:12:21;16.27;;;2.30;;
26325;SDS011;14032;52.510;7.342;2022-09-20T01:14:50;12.88;;;2.30;;
26325;SDS011;14032;52.510;7.342;2022-09-20T01:17:18;14.02;;;2.05;;
26325;SDS011;14032;52.510;7.342;2022-09-20T01:28:20;12.00;;;2.22;;
26325;SDS011;14032;52.510;7.342;2022-09-20T01:30:49;12.80;;;2.47;;
26325;SDS011;14032;52.510;7.342;2022-09-20T01:33:29;13.68;;;2.35;;
26325;SDS011;14032;52.510;7.342;2022-09-20T01:35:57;9.55;;;3.53;;
26325;SDS011;14032;52.510;7.342;2022-09-20T01:38:40;24.10;;;2.92;;
26325;SDS011;14032;52.510;7.342;2022-09-20T01:41:23;20.90;;;2.97;;
26325;SDS011;14032;52.510;7.342;2022-09-20T01:44:03;12.82;;;2.47;;
26325;SDS011;14032;52.510;7.342;2022-09-20T01:46:34;13.52;;;2.80;;
26325;SDS011;14032;52.510;7.342;2022-09-20T01:51:52;12.45;;;2.75;;
26325;SDS011;14032;52.510;7.342;2022-09-20T02:00:37;12.25;;;2.55;;
26325;SDS011;14032;52.510;7.342;2022-09-20T02:03:34;16.98;;;2.65;;
26325;SDS011;14032;52.510;7.342;2022-09-20T02:06:38;19.75;;;2.92;;
26325;SDS011;14032;52.510;7.342;2022-09-20T02:14:38;14.00;;;2.40;;
26325;SDS011;14032;52.510;7.342;2022-09-20T02:28:46;15.13;;;3.13;;
26325;SDS011;14032;52.510;7.342;2022-09-20T02:35:00;11.32;;;2.45;;
26325;SDS011;14032;52.510;7.342;2022-09-20T02:45:25;10.05;;;2.17;;
26325;SDS011;14032;52.510;7.342;2022-09-20T02:48:02;16.55;;;2.70;;
26325;SDS011;14032;52.510;7.342;2022-09-20T02:50:34;18.98;;;2.92;;
26325;SDS011;14032;52.510;7.342;2022-09-20T03:01:42;17.83;;;2.88;;
26325;SDS011;14032;52.510;7.342;2022-09-20T03:10:27;22.38;;;2.90;;
26325;SDS011;14032;52.510;7.342;2022-09-20T03:13:39;16.85;;;3.55;;
26325;SDS011;14032;52.510;7.342;2022-09-20T03:16:18;15.70;;;2.97;;
26325;SDS011;14032;52.510;7.342;2022-09-20T03:22:11;11.60;;;2.67;;
26325;SDS011;14032;52.510;7.342;2022-09-20T03:27:48;12.43;;;2.15;;
26325;SDS011;14032;52.510;7.342;2022-09-20T03:44:43;18.45;;;3.40;;
26325;SDS011;14032;52.510;7.342;2022-09-20T03:55:44;16.90;;;2.67;;
26325;SDS011;14032;52.510;7.342;2022-09-20T04:01:08;15.73;;;2.90;;
26325;SDS011;14032;52.510;7.342;2022-09-20T04:04:11;15.73;;;2.60;;
26325;SDS011;14032;52.510;7.342;2022-09-20T04:20:20;11.25;;;3.08;;
26325;SDS011;14032;52.510;7.342;2022-09-20T04:22:50;11.57;;;2.70;;
26325;SDS011;14032;52.510;7.342;2022-09-20T04:25:41;15.27;;;3.55;;
26325;SDS011;14032;52.510;7.342;2022-09-20T04:28:16;15.88;;;4.95;;
26325;SDS011;14032;52.510;7.342;2022-09-20T04:30:47;15.75;;;3.97;;
26325;SDS011;14032;52.510;7.342;2022-09-20T04:33:20;15.85;;;4.45;;
26325;SDS011;14032;52.510;7.342;2022-09-20T04:35:59;11.82;;;3.42;;
26325;SDS011;14032;52.510;7.342;2022-09-20T04:39:03;18.80;;;4.03;;
26325;SDS011;14032;52.510;7.342;2022-09-20T04:41:55;9.10;;;3.45;;
26325;SDS011;14032;52.510;7.342;2022-09-20T04:56:34;10.02;;;3.40;;
26325;SDS011;14032;52.510;7.342;2022-09-20T05:25:03;12.10;;;3.45;;
26325;SDS011;14032;52.510;7.342;2022-09-20T05:30:39;12.57;;;3.65;;
26325;SDS011;14032;52.510;7.342;2022-09-20T05:33:17;11.80;;;3.35;;
26325;SDS011;14032;52.510;7.342;2022-09-20T05:36:14;13.38;;;3.60;;
26325;SDS011;14032;52.510;7.342;2022-09-20T05:39:26;13.98;;;3.20;;
26325;SDS011;14032;52.510;7.342;2022-09-20T05:41:38;10.45;;;3.85;;
26325;SDS011;14032;52.510;7.342;2022-09-20T05:55:14;12.60;;;3.50;;
26325;SDS011;14032;52.510;7.342;2022-09-20T05:58:04;15.85;;;3.70;;
26325;SDS011;14032;52.510;7.342;2022-09-20T06:03:34;22.15;;;3.97;;
26325;SDS011;14032;52.510;7.342;2022-09-20T06:14:42;24.85;;;4.70;;
26325;SDS011;14032;52.510;7.342;2022-09-20T06:19:50;15.48;;;3.50;;
26325;SDS011;14032;52.510;7.342;2022-09-20T06:22:24;21.75;;;3.80;;
26325;SDS011;14032;52.510;7.342;2022-09-20T06:27:34;13.23;;;3.43;;
26325;SDS011;14032;52.510;7.342;2022-09-20T06:30:07;15.32;;;3.58;;
26325;SDS011;14032;52.510;7.342;2022-09-20T06:33:19;14.10;;;3.40;;
26325;SDS011;14032;52.510;7.342;2022-09-20T06:35:47;14.43;;;3.75;;
26325;SDS011;14032;52.510;7.342;2022-09-20T06:38:30;12.25;;;3.78;;
26325;SDS011;14032;52.510;7.342;2022-09-20T06:41:17;12.23;;;3.42;;
26325;SDS011;14032;52.510;7.342;2022-09-20T06:44:01;16.35;;;3.92;;
26325;SDS011;14032;52.510;7.342;2022-09-20T06:46:30;11.88;;;3.33;;
26325;SDS011;14032;52.510;7.342;2022-09-20T06:48:58;9.25;;;3.05;;
26325;SDS011;14032;52.510;7.342;2022-09-20T06:51:25;11.77;;;3.70;;
26325;SDS011;14032;52.510;7.342;2022-09-20T06:53:53;12.38;;;3.38;;
26325;SDS011;14032;52.510;7.342;2022-09-20T06:56:21;17.77;;;3.25;;
26325;SDS011;14032;52.510;7.342;2022-09-20T06:58:49;13.95;;;4.03;;
26325;SDS011;14032;52.510;7.342;2022-09-20T07:01:16;12.32;;;2.92;;
26325;SDS011;14032;52.510;7.342;2022-09-20T07:03:46;12.90;;;3.40;;
26325;SDS011;14032;52.510;7.342;2022-09-20T07:06:12;9.40;;;3.35;;
26325;SDS011;14032;52.510;7.342;2022-09-20T07:08:43;9.38;;;3.47;;
26325;SDS011;14032;52.510;7.342;2022-09-20T07:11:10;9.82;;;3.70;;
26325;SDS011;14032;52.510;7.342;2022-09-20T07:13:39;12.80;;;3.70;;
26325;SDS011;14032;52.510;7.342;2022-09-20T07:16:10;11.57;;;3.38;;
26325;SDS011;14032;52.510;7.342;2022-09-20T07:18:38;8.98;;;3.60;;
26325;SDS011;14032;52.510;7.342;2022-09-20T07:21:05;13.23;;;4.20;;
26325;SDS011;14032;52.510;7.342;2022-09-20T07:23:31;12.05;;;3.63;;
26325;SDS011;14032;52.510;7.342;2022-09-20T07:25:57;12.05;;;3.70;;
26325;SDS011;14032;52.510;7.342;2022-09-20T07:28:25;11.88;;;3.60;;
26325;SDS011;14032;52.510;7.342;2022-09-20T07:30:51;11.75;;;3.90;;
26325;SDS011;14032;52.510;7.342;2022-09-20T07:33:18;10.48;;;4.40;;
26325;SDS011;14032;52.510;7.342;2022-09-20T07:35:46;15.23;;;5.45;;
26325;SDS011;14032;52.510;7.342;2022-09-20T07:38:12;17.00;;;6.00;;
26325;SDS011;14032;52.510;7.342;2022-09-20T07:40:39;18.35;;;5.30;;
26325;SDS011;14032;52.510;7.342;2022-09-20T07:43:10;13.50;;;4.03;;
26325;SDS011;14032;52.510;7.342;2022-09-20T07:45:36;12.32;;;3.60;;
26325;SDS011;14032;52.510;7.342;2022-09-20T07:48:04;18.05;;;5.50;;
26325;SDS011;14032;52.510;7.342;2022-09-20T07:50:31;14.00;;;5.22;;
26325;SDS011;14032;52.510;7.342;2022-09-20T07:52:57;10.35;;;3.95;;
26325;SDS011;14032;52.510;7.342;2022-09-20T07:55:23;11.48;;;2.83;;
26325;SDS011;14032;52.510;7.342;2022-09-20T07:57:49;11.25;;;2.35;;
26325;SDS011;14032;52.510;7.342;2022-09-20T08:00:18;10.48;;;1.70;;
26325;SDS011;14032;52.510;7.342;2022-09-20T08:02:43;8.02;;;1.55;;
26325;SDS011;14032;52.510;7.342;2022-09-20T08:05:09;7.20;;;1.55;;
26325;SDS011;14032;52.510;7.342;2022-09-20T08:07:35;7.50;;;1.52;;
26325;SDS011;14032;52.510;7.342;2022-09-20T08:10:02;6.78;;;1.58;;
26325;SDS011;14032;52.510;7.342;2022-09-20T08:12:28;5.63;;;1.50;;
26325;SDS011;14032;52.510;7.342;2022-09-20T08:14:54;5.80;;;1.83;;
26325;SDS011;14032;52.510;7.342;2022-09-20T08:17:20;9.25;;;1.52;;
26325;SDS011;14032;52.510;7.342;2022-09-20T08:19:47;6.40;;;1.10;;
26325;SDS011;14032;52.510;7.342;2022-09-20T08:22:14;11.40;;;1.77;;
26325;SDS011;14032;52.510;7.342;2022-09-20T08:24:40;7.05;;;1.40;;
26325;SDS011;14032;52.510;7.342;2022-09-20T08:27:06;8.77;;;1.70;;
26325;SDS011;14032;52.510;7.342;2022-09-20T08:29:32;6.63;;;1.15;;
26325;SDS011;14032;52.510;7.342;2022-09-20T08:31:58;11.55;;;2.20;;
26325;SDS011;14032;52.510;7.342;2022-09-20T08:34:26;6.50;;;1.52;;
26325;SDS011;14032;52.510;7.342;2022-09-20T08:36:53;6.78;;;1.20;;
26325;SDS011;14032;52.510;7.342;2022-09-20T08:39:20;8.02;;;1.48;;
26325;SDS011;14032;52.510;7.342;2022-09-20T08:49:31;9.90;;;1.45;;
26325;SDS011;14032;52.510;7.342;2022-09-20T08:51:57;7.63;;;0.95;;
26325;SDS011;14032;52.510;7.342;2022-09-20T08:54:26;5.13;;;1.20;;
26325;SDS011;14032;52.510;7.342;2022-09-20T08:56:55;8.32;;;1.05;;
26325;SDS011;14032;52.510;7.342;2022-09-20T08:59:29;8.45;;;1.58;;
26325;SDS011;14032;52.510;7.342;2022-09-20T09:01:55;5.55;;;0.90;;
26325;SDS011;14032;52.510;7.342;2022-09-20T09:04:23;5.40;;;1.15;;
26325;SDS011;14032;52.510;7.342;2022-09-20T09:06:55;8.93;;;1.08;;
26325;SDS011;14032;52.510;7.342;2022-09-20T09:09:22;8.68;;;1.38;;
26325;SDS011;14032;52.510;7.342;2022-09-20T09:11:53;9.75;;;1.23;;
26325;SDS011;14032;52.510;7.342;2022-09-20T09:14:26;5.70;;;1.30;;
26325;SDS011;14032;52.510;7.342;2022-09-20T09:17:14;6.55;;;1.17;;
26325;SDS011;14032;52.510;7.342;2022-09-20T09:22:22;8.63;;;1.30;;
26325;SDS011;14032;52.510;7.342;2022-09-20T09:30:27;7.03;;;1.13;;
26325;SDS011;14032;52.510;7.342;2022-09-20T09:36:05;9.93;;;0.80;;
26325;SDS011;14032;52.510;7.342;2022-09-20T09:38:39;6.50;;;1.05;;
26325;SDS011;14032;52.510;7.342;2022-09-20T09:46:47;7.50;;;1.02;;
26325;SDS011;14032;52.510;7.342;2022-09-20T09:49:21;5.32;;;0.93;;
26325;SDS011;14032;52.510;7.342;2022-09-20T09:57:41;6.45;;;1.05;;
26325;SDS011;14032;52.510;7.342;2022-09-20T10:00:23;7.03;;;1.00;;
26325;SDS011;14032;52.510;7.342;2022-09-20T10:11:56;4.78;;;1.02;;
26325;SDS011;14032;52.510;7.342;2022-09-20T10:18:11;5.43;;;1.15;;
26325;SDS011;14032;52.510;7.342;2022-09-20T10:20:56;3.92;;;0.63;;
26325;SDS011;14032;52.510;7.342;2022-09-20T10:26:37;7.95;;;0.80;;
26325;SDS011;14032;52.510;7.342;2022-09-20T10:37:42;5.63;;;0.88;;
26325;SDS011;14032;52.510;7.342;2022-09-20T10:43:48;4.07;;;0.73;;
26325;SDS011;14032;52.510;7.342;2022-09-20T10:46:31;4.68;;;0.90;;
26325;SDS011;14032;52.510;7.342;2022-09-20T10:52:30;5.25;;;0.65;;
26325;SDS011;14032;52.510;7.342;2022-09-20T10:55:10;3.30;;;0.65;;
26325;SDS011;14032;52.510;7.342;2022-09-20T10:57:49;5.18;;;0.65;;
26325;SDS011;14032;52.510;7.342;2022-09-20T11:06:14;3.67;;;0.80;;
26325;SDS011;14032;52.510;7.342;2022-09-20T11:08:53;4.53;;;0.52;;
26325;SDS011;14032;52.510;7.342;2022-09-20T11:11:23;2.50;;;0.55;;
26325;SDS011;14032;52.510;7.342;2022-09-20T11:14:02;3.55;;;0.75;;
26325;SDS011;14032;52.510;7.342;2022-09-20T11:16:41;5.53;;;0.68;;
26325;SDS011;14032;52.510;7.342;2022-09-20T11:19:49;2.95;;;0.65;;
26325;SDS011;14032;52.510;7.342;2022-09-20T11:22:39;6.13;;;0.90;;
26325;SDS011;14032;52.510;7.342;2022-09-20T11:27:38;6.38;;;0.70;;
26325;SDS011;14032;52.510;7.342;2022-09-20T11:30:16;3.30;;;0.52;;
26325;SDS011;14032;52.510;7.342;2022-09-20T11:33:07;4.38;;;0.88;;
26325;SDS011;14032;52.510;7.342;2022-09-20T11:35:45;3.63;;;0.50;;
26325;SDS011;14032;52.510;7.342;2022-09-20T11:44:06;2.03;;;0.45;;
26325;SDS011;14032;52.510;7.342;2022-09-20T11:49:25;4.55;;;0.60;;
26325;SDS011;14032;52.510;7.342;2022-09-20T11:52:08;4.13;;;0.75;;
26325;SDS011;14032;52.510;7.342;2022-09-20T11:57:19;2.40;;;0.50;;
26325;SDS011;14032;52.510;7.342;2022-09-20T11:59:57;3.92;;;0.40;;
26325;SDS011;14032;52.510;7.342;2022-09-20T12:02:32;2.53;;;0.63;;
26325;SDS011;14032;52.510;7.342;2022-09-20T12:05:38;2.33;;;0.43;;
26325;SDS011;14032;52.510;7.342;2022-09-20T12:08:50;2.63;;;0.40;;
26325;SDS011;14032;52.510;7.342;2022-09-20T12:11:05;4.22;;;0.70;;
26325;SDS011;14032;52.510;7.342;2022-09-20T12:13:33;3.58;;;0.57;;
26325;SDS011;14032;52.510;7.342;2022-09-20T12:16:12;1.70;;;0.70;;
26325;SDS011;14032;52.510;7.342;2022-09-20T12:21:20;5.00;;;0.75;;
26325;SDS011;14032;52.510;7.342;2022-09-20T12:28:50;3.80;;;0.90;;
26325;SDS011;14032;52.510;7.342;2022-09-20T12:39:18;2.92;;;0.40;;
26325;SDS011;14032;52.510;7.342;2022-09-20T12:49:41;5.65;;;0.82;;
26325;SDS011;14032;52.510;7.342;2022-09-20T12:58:04;6.95;;;0.98;;
26325;SDS011;14032;52.510;7.342;2022-09-20T13:03:31;4.72;;;0.70;;
26325;SDS011;14032;52.510;7.342;2022-09-20T13:08:30;5.50;;;0.80;;
26325;SDS011;14032;52.510;7.342;2022-09-20T13:14:13;6.18;;;1.25;;
26325;SDS011;14032;52.510;7.342;2022-09-20T13:19:34;4.72;;;0.70;;
26325;SDS011;14032;52.510;7.342;2022-09-20T13:22:10;3.17;;;0.90;;
26325;SDS011;14032;52.510;7.342;2022-09-20T13:24:55;8.10;;;0.90;;
26325;SDS011;14032;52.510;7.342;2022-09-20T13:27:32;4.35;;;1.10;;
26325;SDS011;14032;52.510;7.342;2022-09-20T13:30:27;6.57;;;1.40;;
26325;SDS011;14032;52.510;7.342;2022-09-20T13:32:56;3.28;;;0.90;;
26325;SDS011;14032;52.510;7.342;2022-09-20T13:35:46;3.15;;;0.80;;
26325;SDS011;14032;52.510;7.342;2022-09-20T13:38:16;2.83;;;0.75;;
26325;SDS011;14032;52.510;7.342;2022-09-20T13:40:46;3.60;;;0.70;;
26325;SDS011;14032;52.510;7.342;2022-09-20T13:43:48;2.45;;;0.70;;
26325;SDS011;14032;52.510;7.342;2022-09-20T13:48:37;5.50;;;1.10;;
26325;SDS011;14032;52.510;7.342;2022-09-20T13:51:13;5.22;;;0.80;;
26325;SDS011;14032;52.510;7.342;2022-09-20T13:53:43;7.07;;;0.90;;
26325;SDS011;14032;52.510;7.342;2022-09-20T13:56:15;4.22;;;0.85;;
26325;SDS011;14032;52.510;7.342;2022-09-20T13:58:42;6.40;;;0.80;;
26325;SDS011;14032;52.510;7.342;2022-09-20T14:01:17;6.57;;;0.95;;
26325;SDS011;14032;52.510;7.342;2022-09-20T14:03:47;3.25;;;0.50;;
26325;SDS011;14032;52.510;7.342;2022-09-20T14:06:13;3.95;;;0.57;;
26325;SDS011;14032;52.510;7.342;2022-09-20T14:08:45;6.13;;;0.57;;
26325;SDS011;14032;52.510;7.342;2022-09-20T14:13:52;3.92;;;0.70;;
26325;SDS011;14032;52.510;7.342;2022-09-20T14:16:29;3.10;;;0.82;;
26325;SDS011;14032;52.510;7.342;2022-09-20T14:18:57;7.15;;;1.25;;
26325;SDS011;14032;52.510;7.342;2022-09-20T14:21:25;2.90;;;0.80;;
26325;SDS011;14032;52.510;7.342;2022-09-20T14:23:53;3.90;;;0.57;;
26325;SDS011;14032;52.510;7.342;2022-09-20T14:26:32;7.18;;;0.60;;
26325;SDS011;14032;52.510;7.342;2022-09-20T14:32:09;3.78;;;0.73;;
26325;SDS011;14032;52.510;7.342;2022-09-20T14:34:43;3.85;;;0.52;;
26325;SDS011;14032;52.510;7.342;2022-09-20T14:37:17;4.30;;;0.80;;
26325;SDS011;14032;52.510;7.342;2022-09-20T14:39:54;5.57;;;0.80;;
26325;SDS011;14032;52.510;7.342;2022-09-20T14:42:23;5.03;;;0.68;;
26325;SDS011;14032;52.510;7.342;2022-09-20T14:44:54;4.53;;;1.45;;
26325;SDS011;14032;52.510;7.342;2022-09-20T14:47:26;6.53;;;0.90;;
26325;SDS011;14032;52.510;7.342;2022-09-20T14:50:04;4.57;;;0.80;;
26325;SDS011;14032;52.510;7.342;2022-09-20T14:55:26;11.18;;;1.17;;
26325;SDS011;14032;52.510;7.342;2022-09-20T14:57:55;4.85;;;1.00;;
26325;SDS011;14032;52.510;7.342;2022-09-20T15:00:25;4.80;;;0.75;;
26325;SDS011;14032;52.510;7.342;2022-09-20T15:02:51;5.85;;;1.33;;
26325;SDS011;14032;52.510;7.342;2022-09-20T15:05:19;2.72;;;0.77;;
26325;SDS011;14032;52.510;7.342;2022-09-20T15:07:45;3.72;;;0.60;;
26325;SDS011;14032;52.510;7.342;2022-09-20T15:10:11;5.18;;;1.08;;
26325;SDS011;14032;52.510;7.342;2022-09-20T15:12:38;5.63;;;1.35;;
26325;SDS011;14032;52.510;7.342;2022-09-20T15:15:04;6.13;;;1.08;;
26325;SDS011;14032;52.510;7.342;2022-09-20T15:17:30;5.10;;;1.02;;
26325;SDS011;14032;52.510;7.342;2022-09-20T15:19:55;7.03;;;1.20;;
26325;SDS011;14032;52.510;7.342;2022-09-20T15:22:21;4.50;;;0.90;;
26325;SDS011;14032;52.510;7.342;2022-09-20T15:24:46;6.82;;;1.35;;
26325;SDS011;14032;52.510;7.342;2022-09-20T15:27:12;6.68;;;1.25;;
26325;SDS011;14032;52.510;7.342;2022-09-20T15:29:38;7.00;;;0.90;;
26325;SDS011;14032;52.510;7.342;2022-09-20T15:32:04;3.63;;;0.88;;
26325;SDS011;14032;52.510;7.342;2022-09-20T15:34:30;3.90;;;0.73;;
26325;SDS011;14032;52.510;7.342;2022-09-20T15:36:56;4.20;;;0.80;;
26325;SDS011;14032;52.510;7.342;2022-09-20T15:39:22;5.75;;;1.25;;
26325;SDS011;14032;52.510;7.342;2022-09-20T15:41:50;7.35;;;1.50;;
26325;SDS011;14032;52.510;7.342;2022-09-20T15:44:16;2.42;;;0.65;;
26325;SDS011;14032;52.510;7.342;2022-09-20T15:46:42;5.20;;;1.00;;
26325;SDS011;14032;52.510;7.342;2022-09-20T15:49:08;4.85;;;0.90;;
26325;SDS011;14032;52.510;7.342;2022-09-20T15:51:36;4.72;;;1.00;;
26325;SDS011;14032;52.510;7.342;2022-09-20T15:54:03;6.10;;;1.63;;
26325;SDS011;14032;52.510;7.342;2022-09-20T15:56:34;7.32;;;1.58;;
26325;SDS011;14032;52.510;7.342;2022-09-20T15:59:05;7.05;;;1.50;;
26325;SDS011;14032;52.510;7.342;2022-09-20T16:01:35;6.45;;;1.48;;
26325;SDS011;14032;52.510;7.342;2022-09-20T16:04:16;4.63;;;1.27;;
26325;SDS011;14032;52.510;7.342;2022-09-20T16:06:44;7.45;;;1.05;;
26325;SDS011;14032;52.510;7.342;2022-09-20T16:09:12;8.45;;;1.70;;
26325;SDS011;14032;52.510;7.342;2022-09-20T16:11:37;3.50;;;0.73;;
26325;SDS011;14032;52.510;7.342;2022-09-20T16:14:03;5.88;;;1.08;;
26325;SDS011;14032;52.510;7.342;2022-09-20T16:16:30;6.70;;;1.27;;
26325;SDS011;14032;52.510;7.342;2022-09-20T16:18:57;6.47;;;0.98;;
26325;SDS011;14032;52.510;7.342;2022-09-20T16:21:42;2.83;;;1.08;;
26325;SDS011;14032;52.510;7.342;2022-09-20T16:24:11;8.18;;;2.30;;
26325;SDS011;14032;52.510;7.342;2022-09-20T16:26:37;6.72;;;2.17;;
26325;SDS011;14032;52.510;7.342;2022-09-20T16:29:03;7.28;;;1.83;;
26325;SDS011;14032;52.510;7.342;2022-09-20T16:34:08;4.60;;;1.05;;
26325;SDS011;14032;52.510;7.342;2022-09-20T16:36:41;4.43;;;1.02;;
26325;SDS011;14032;52.510;7.342;2022-09-20T16:39:07;7.40;;;1.27;;
26325;SDS011;14032;52.510;7.342;2022-09-20T16:41:33;2.88;;;1.25;;
26325;SDS011;14032;52.510;7.342;2022-09-20T16:44:00;5.20;;;1.30;;
26325;SDS011;14032;52.510;7.342;2022-09-20T16:46:26;1.83;;;0.90;;
26325;SDS011;14032;52.510;7.342;2022-09-20T16:48:55;3.95;;;0.88;;
26325;SDS011;14032;52.510;7.342;2022-09-20T16:51:23;3.88;;;1.00;;
26325;SDS011;14032;52.510;7.342;2022-09-20T16:53:52;2.20;;;0.80;;
26325;SDS011;14032;52.510;7.342;2022-09-20T16:56:20;4.47;;;1.10;;
26325;SDS011;14032;52.510;7.342;2022-09-20T16:58:50;3.33;;;1.17;;
26325;SDS011;14032;52.510;7.342;2022-09-20T17:01:17;5.05;;;1.25;;
26325;SDS011;14032;52.510;7.342;2022-09-20T17:03:43;4.53;;;1.08;;
26325;SDS011;14032;52.510;7.342;2022-09-20T17:06:10;4.07;;;1.25;;
26325;SDS011;14032;52.510;7.342;2022-09-20T17:08:36;4.05;;;1.10;;
26325;SDS011;14032;52.510;7.342;2022-09-20T17:11:10;4.93;;;1.35;;
26325;SDS011;14032;52.510;7.342;2022-09-20T17:13:50;4.60;;;1.10;;
26325;SDS011;14032;52.510;7.342;2022-09-20T17:16:17;6.88;;;1.88;;
26325;SDS011;14032;52.510;7.342;2022-09-20T17:18:51;4.88;;;0.98;;
26325;SDS011;14032;52.510;7.342;2022-09-20T17:21:25;6.78;;;1.55;;
26325;SDS011;14032;52.510;7.342;2022-09-20T17:23:53;6.45;;;1.60;;
26325;SDS011;14032;52.510;7.342;2022-09-20T17:26:21;3.83;;;1.10;;
26325;SDS011;14032;52.510;7.342;2022-09-20T17:28:58;5.65;;;1.52;;
26325;SDS011;14032;52.510;7.342;2022-09-20T17:31:26;6.80;;;2.00;;
26325;SDS011;14032;52.510;7.342;2022-09-20T17:33:58;7.60;;;1.40;;
26325;SDS011;14032;52.510;7.342;2022-09-20T17:36:30;8.50;;;1.35;;
26325;SDS011;14032;52.510;7.342;2022-09-20T17:38:57;7.13;;;1.77;;
26325;SDS011;14032;52.510;7.342;2022-09-20T17:41:24;3.42;;;1.33;;
26325;SDS011;14032;52.510;7.342;2022-09-20T17:43:52;7.57;;;1.50;;
26325;SDS011;14032;52.510;7.342;2022-09-20T17:46:23;5.10;;;1.80;;
26325;SDS011;14032;52.510;7.342;2022-09-20T17:48:55;4.78;;;1.40;;
26325;SDS011;14032;52.510;7.342;2022-09-20T17:51:46;4.20;;;1.80;;
26325;SDS011;14032;52.510;7.342;2022-09-20T17:54:14;6.65;;;1.63;;
26325;SDS011;14032;52.510;7.342;2022-09-20T17:56:40;7.75;;;1.50;;
26325;SDS011;14032;52.510;7.342;2022-09-20T17:59:17;4.75;;;1.50;;
26325;SDS011;14032;52.510;7.342;2022-09-20T18:01:45;6.00;;;1.48;;
26325;SDS011;14032;52.510;7.342;2022-09-20T18:04:11;3.83;;;1.42;;
26325;SDS011;14032;52.510;7.342;2022-09-20T18:06:39;5.22;;;1.75;;
26325;SDS011;14032;52.510;7.342;2022-09-20T18:09:07;4.30;;;1.50;;
26325;SDS011;14032;52.510;7.342;2022-09-20T18:11:38;5.72;;;1.52;;
26325;SDS011;14032;52.510;7.342;2022-09-20T18:14:06;6.82;;;1.60;;
26325;SDS011;14032;52.510;7.342;2022-09-20T18:16:34;6.95;;;1.70;;
26325;SDS011;14032;52.510;7.342;2022-09-20T18:19:01;5.10;;;1.42;;
26325;SDS011;14032;52.510;7.342;2022-09-20T18:21:28;7.18;;;2.20;;
26325;SDS011;14032;52.510;7.342;2022-09-20T18:23:55;11.95;;;1.98;;
26325;SDS011;14032;52.510;7.342;2022-09-20T18:26:25;6.50;;;1.80;;
26325;SDS011;14032;52.510;7.342;2022-09-20T18:29:01;12.63;;;1.65;;
26325;SDS011;14032;52.510;7.342;2022-09-20T18:31:48;5.22;;;1.80;;
26325;SDS011;14032;52.510;7.342;2022-09-20T18:34:19;4.80;;;1.50;;
26325;SDS011;14032;52.510;7.342;2022-09-20T18:36:49;7.10;;;1.73;;
26325;SDS011;14032;52.510;7.342;2022-09-20T18:39:18;5.57;;;1.60;;
26325;SDS011;14032;52.510;7.342;2022-09-20T18:41:44;8.50;;;1.90;;
26325;SDS011;14032;52.510;7.342;2022-09-20T18:44:13;13.48;;;2.13;;
26325;SDS011;14032;52.510;7.342;2022-09-20T18:46:38;12.93;;;2.20;;
26325;SDS011;14032;52.510;7.342;2022-09-20T18:49:06;5.95;;;1.50;;
26325;SDS011;14032;52.510;7.342;2022-09-20T18:51:33;5.32;;;2.35;;
26325;SDS011;14032;52.510;7.342;2022-09-20T18:53:59;3.95;;;1.52;;
26325;SDS011;14032;52.510;7.342;2022-09-20T18:59:05;4.63;;;1.65;;
26325;SDS011;14032;52.510;7.342;2022-09-20T19:20:47;7.30;;;1.83;;
26325;SDS011;14032;52.510;7.342;2022-09-20T19:23:43;8.10;;;1.83;;
26325;SDS011;14032;52.510;7.342;2022-09-20T19:28:37;5.43;;;1.23;;
26325;SDS011;14032;52.510;7.342;2022-09-20T19:31:03;4.90;;;1.30;;
26325;SDS011;14032;52.510;7.342;2022-09-20T19:33:29;5.25;;;1.95;;
26325;SDS011;14032;52.510;7.342;2022-09-20T19:35:55;3.95;;;1.80;;
26325;SDS011;14032;52.510;7.342;2022-09-20T19:41:22;5.55;;;1.40;;
26325;SDS011;14032;52.510;7.342;2022-09-20T19:52:19;5.57;;;1.20;;
26325;SDS011;14032;52.510;7.342;2022-09-20T19:54:46;4.15;;;1.33;;
26325;SDS011;14032;52.510;7.342;2022-09-20T19:57:16;5.10;;;1.40;;
26325;SDS011;14032;52.510;7.342;2022-09-20T19:59:42;2.63;;;1.20;;
26325;SDS011;14032;52.510;7.342;2022-09-20T20:02:08;5.60;;;1.48;;
26325;SDS011;14032;52.510;7.342;2022-09-20T20:04:36;5.00;;;1.20;;
26325;SDS011;14032;52.510;7.342;2022-09-20T20:12:13;6.72;;;1.48;;
26325;SDS011;14032;52.510;7.342;2022-09-20T20:14:55;5.38;;;1.48;;
26325;SDS011;14032;52.510;7.342;2022-09-20T20:17:29;5.13;;;1.25;;
26325;SDS011;14032;52.510;7.342;2022-09-20T20:20:13;3.47;;;1.20;;
26325;SDS011;14032;52.510;7.342;2022-09-20T20:26:05;3.20;;;1.15;;
26325;SDS011;14032;52.510;7.342;2022-09-20T20:28:32;4.55;;;1.45;;
26325;SDS011;14032;52.510;7.342;2022-09-20T20:30:58;5.10;;;1.25;;
26325;SDS011;14032;52.510;7.342;2022-09-20T20:33:26;5.80;;;1.40;;
26325;SDS011;14032;52.510;7.342;2022-09-20T20:35:56;2.47;;;1.15;;
26325;SDS011;14032;52.510;7.342;2022-09-20T20:38:24;4.65;;;1.50;;
26325;SDS011;14032;52.510;7.342;2022-09-20T20:41:00;5.45;;;1.52;;
26325;SDS011;14032;52.510;7.342;2022-09-20T20:43:32;3.40;;;1.00;;
26325;SDS011;14032;52.510;7.342;2022-09-20T20:46:00;5.55;;;1.23;;
26325;SDS011;14032;52.510;7.342;2022-09-20T20:48:26;7.13;;;1.35;;
26325;SDS011;14032;52.510;7.342;2022-09-20T20:50:59;5.90;;;1.27;;
26325;SDS011;14032;52.510;7.342;2022-09-20T20:53:29;5.07;;;1.10;;
26325;SDS011;14032;52.510;7.342;2022-09-20T20:56:00;10.18;;;1.38;;
26325;SDS011;14032;52.510;7.342;2022-09-20T20:58:30;5.20;;;1.05;;
26325;SDS011;14032;52.510;7.342;2022-09-20T21:01:41;4.97;;;1.23;;
26325;SDS011;14032;52.510;7.342;2022-09-20T21:03:52;5.85;;;1.23;;
26325;SDS011;14032;52.510;7.342;2022-09-20T21:06:19;3.88;;;1.15;;
26325;SDS011;14032;52.510;7.342;2022-09-20T21:08:48;4.80;;;1.67;;
26325;SDS011;14032;52.510;7.342;2022-09-20T21:11:18;8.20;;;1.88;;
26325;SDS011;14032;52.510;7.342;2022-09-20T21:13:47;4.90;;;1.98;;
26325;SDS011;14032;52.510;7.342;2022-09-20T21:16:14;5.13;;;2.00;;